Latest Coastal Weather Observations for Christmas Island

IDW60701

Issued at 8:52 pm WST Saturday 30 May 2015 (issued every 10 minutes, with the page automatically refreshed every 10 minutes)

About coastal observations | Map of coastal stations | Coastal observations for WA | Marine services | Other Formats
Station Details ID: 200790 Name: CHRISTMAS ISLAND AERO Lat: -10.45 Lon: 105.69 Height: 261.0 m
Data from the previous 72 hours. | See also: Recent months at Christmas Island
Date/Time
WST
Temp

°C
Wind Pressure Rain
since 9am
mm
Weather Cloud Vis
km
Sea
Height
m
Swell
Dir
 
Speed
knots
Gust
knots
hPa Trend Height
m
Period
s
Dir
30/08:43pm 25.4 ESE 10 16 1014.3 - 0.0 - Partly cloudy 10 - - - -
30/08:16pm 25.4 ESE 10 13 1014.1 - 0.0 - Partly cloudy 10 - - - -
30/08:00pm 25.4 SE 11 14 1014.0 - 0.0 - Partly cloudy 10 - - - -
30/07:00pm 25.4 ESE 10 15 1012.0 - 0.0 - Cloudy 10 - - - -
30/06:00pm 25.7 ESE 11 15 1013.0 - 0.0 - Partly cloudy 10 - - - -
30/05:00pm 26.1 ESE 10 14 1013.0 - 0.0 - Partly cloudy 10 - - - -
30/04:54pm 26.1 ESE 9 13 1013.0 - 0.0 - Partly cloudy 10 - - - -
30/04:00pm 26.6 ESE 11 17 1011.4 - 0.0 - Mostly clear 10 - - - -
30/03:00pm 26.9 ESE 12 18 1013.3 - 0.0 - Partly cloudy 10 - - - -
30/02:00pm 26.7 ESE 12 18 1014.0 - 0.0 - Partly cloudy 10 - - - -
30/01:21pm 27.2 ESE 12 17 1014.3 - 0.0 - Partly cloudy 10 - - - -
30/01:00pm 27.0 ESE 12 16 1013.2 - 0.0 - Partly cloudy 10 - - - -
30/12:00pm 25.3 SE 9 13 1015.5 - 0.0 - Partly cloudy 10 - - - -
30/11:59am 25.3 SE 9 13 1015.5 - 0.0 - Partly cloudy 10 - - - -
30/11:48am 25.5 SE 9 13 1015.7 - 0.0 - Partly cloudy 10 - - - -
30/11:23am 25.1 SE 9 14 1015.9 - 0.0 - Partly cloudy 9 - - - -
30/11:05am 24.3 SSE 11 18 1016.1 - 0.0 - Partly cloudy 6 - - - -
30/11:00am 24.3 SSE 10 16 1016.1 - 0.0 - Partly cloudy 9 - - - -
30/10:15am 24.3 SE 9 14 1016.2 - 0.0 - Partly cloudy 10 - - - -
30/10:00am 23.9 SE 13 20 1014.7 - 30.2 - Cloudy 5 - - - -
30/09:20am 24.2 ESE 11 16 1015.8 - 24.8 - Partly cloudy 6 - - - -
30/09:07am 24.0 E 9 14 1015.8 - 24.2 - Partly cloudy 10 - - - -
30/09:00am 23.4 ESE 10 14 1015.8 - 24.2 - Partly cloudy 10 - - - -
30/08:28am 23.1 E 12 16 1015.9 - 21.0 - Partly cloudy 0.5 - - - -
30/08:00am 24.1 SE 11 16 1015.1 - 12.6 - Partly cloudy 4 - - - -
30/07:53am 24.4 SE 10 15 1015.1 - 12.4 - Partly cloudy 0.5 - - - -
30/07:47am 24.4 SE 9 13 1014.9 - 12.0 - Partly cloudy 0.9 - - - -
30/07:41am 24.3 SE 9 13 1014.9 - 12.0 - Partly cloudy 2 - - - -
30/07:22am 24.0 SE 10 17 1015.0 - 11.8 - Partly cloudy 3 - - - -
30/07:00am 23.9 ESE 8 14 1013.2 - 9.4 - Cloudy 4 - - - -
30/06:30am 24.3 SE 11 16 1014.5 - 7.4 - Partly cloudy 6 - - - -
30/06:00am 24.7 SE 13 18 1014.3 - 7.4 - Partly cloudy 10 - - - -
30/05:06am 24.5 SE 11 15 1014.2 - 7.4 - Partly cloudy 9 - - - -
30/05:00am 24.5 SE 11 14 1014.2 - 7.4 - Partly cloudy 10 - - - -
30/04:38am 24.3 SE 11 15 1014.3 - 7.4 - Partly cloudy 10 - - - -
30/04:10am 24.5 SE 12 18 1014.4 - 7.4 - Partly cloudy 10 - - - -
30/04:00am 24.3 SE 10 16 1012.7 - 7.4 - Cloudy 6 - - - -
30/03:57am 24.4 SE 9 15 1014.4 - 7.4 - Partly cloudy 6 - - - -
30/03:40am 23.9 SE 9 13 1014.5 - 7.2 - Partly cloudy 10 - - - -
30/03:28am 23.3 SSE 6 11 1014.7 - 7.2 - Partly cloudy 10 - - - -
30/03:25am 23.1 SSE 6 13 1014.8 - 7.2 - Partly cloudy 10 - - - -
30/03:12am 23.4 SE 12 19 1015.0 - 7.0 - Partly cloudy 6 - - - -
30/03:00am 24.0 SE 10 16 1015.0 - 7.0 - Partly cloudy 8 - - - -
30/02:02am 24.8 SE 11 18 1015.4 - 0.6 - Partly cloudy 6 - - - -
30/02:00am 24.9 SE 10 14 1015.5 - 0.6 - Partly cloudy 9 - - - -
30/01:00am 25.4 SE 11 17 1014.3 - 0.6 - Cloudy 10 - - - -
30/12:52am 25.4 SE 12 17 1015.8 - 0.6 - Partly cloudy 10 - - - -
30/12:40am 25.3 SE 12 17 1015.9 - 0.6 - Partly cloudy 10 - - - -
30/12:00am 25.4 SE 11 15 1016.1 - 0.6 - Partly cloudy 10 - - - -
 
Date/Time
WST
Temp

°C
Wind Pressure Rain
since 9am
mm
Weather Cloud Vis
km
Sea
Height
m
Swell
Dir
 
Speed
knots
Gust
knots
hPa Trend Height
m
Period
s
Dir
29/11:46pm 25.4 SE 11 16 1016.2 - 0.6 - Partly cloudy 10 - - - -
29/11:00pm 25.5 SE 12 17 1016.2 - 0.6 - Partly cloudy 10 - - - -
29/10:45pm 25.6 SE 12 18 1016.2 - 0.6 - Partly cloudy 10 - - - -
29/10:41pm 25.7 SE 13 19 1016.2 - 0.6 - Partly cloudy 10 - - - -
29/10:28pm 25.6 SE 12 16 1016.3 - 0.6 - Partly cloudy 10 - - - -
29/10:19pm 25.6 SE 11 15 1016.3 - 0.6 - Partly cloudy 10 - - - -
29/10:00pm 25.5 SE 11 16 1014.5 - 0.6 - Cloudy 10 - - - -
29/09:00pm 25.4 SE 10 15 1015.8 - 0.6 - Partly cloudy 10 - - - -
29/08:48pm 25.6 SE 10 15 1015.5 - 0.6 - Partly cloudy 10 - - - -
29/08:47pm 25.7 SE 10 14 1015.5 - 0.6 - Partly cloudy 10 - - - -
29/08:00pm 25.4 SE 11 16 1015.1 - 0.6 - Partly cloudy 10 - - - -
29/07:00pm 25.3 SE 11 14 1013.2 - 0.6 - Mostly cloudy 8 - - - -
29/06:56pm 25.4 SE 11 15 1014.8 - 0.6 - Partly cloudy 9 - - - -
29/06:49pm 25.2 SE 10 15 1014.7 - 0.6 - Partly cloudy 10 - - - -
29/06:00pm 25.5 ESE 11 14 1014.1 - 0.6 - Partly cloudy 10 - - - -
29/05:03pm 25.6 SE 10 14 1013.9 - 0.6 - Partly cloudy 10 - - - -
29/05:00pm 25.6 SE 10 14 1013.9 - 0.6 - Partly cloudy 10 - - - -
29/04:42pm 25.6 SE 10 13 1013.8 - 0.6 - Partly cloudy 10 - - - -
29/04:04pm 25.6 SE 10 15 1013.6 - 0.6 - Partly cloudy 10 - - - -
29/04:00pm 25.5 SE 10 15 1012.0 - 0.6 - Cloudy 10 - - - -
29/03:45pm 24.9 SE 11 15 1013.6 - 0.6 - Partly cloudy 10 - - - -
29/03:19pm 24.1 SSE 7 11 1013.8 - 0.6 - Partly cloudy 6 - - - -
29/03:06pm 24.1 SSE 7 10 1014.0 - 0.6 - Partly cloudy 6 - - - -
29/03:04pm 24.1 SSE 7 10 1014.0 - 0.6 - Partly cloudy 7 - - - -
29/03:00pm 24.1 SE 8 12 1014.0 - 0.6 - Partly cloudy 8 - - - -
29/02:48pm 24.5 SE 10 18 1014.3 - 0.6 - Partly cloudy 6 - - - -
29/02:00pm 24.6 SE 12 17 1014.6 - 0.0 - Partly cloudy 7 - - - -
29/01:22pm 25.9 SE 10 14 1014.8 - 0.0 - Partly cloudy 10 - - - -
29/01:19pm 25.9 SE 10 14 1014.7 - 0.0 - Partly cloudy 10 - - - -
29/01:00pm 26.2 SE 11 14 1013.2 - 0.0 - Partly cloudy 10 - - - -
29/12:59pm 26.2 SE 11 14 1014.8 - 0.0 - Partly cloudy 10 - - - -
29/12:52pm 25.9 SE 11 16 1015.0 - 0.0 - Partly cloudy 10 - - - -
29/12:42pm 26.0 SE 12 17 1015.1 - 0.0 - Partly cloudy 10 - - - -
29/12:00pm 25.9 SE 11 16 1015.6 - 0.0 - Partly cloudy 10 - - - -
29/11:43am 25.3 SE 10 16 1015.8 - 0.0 - Partly cloudy 10 - - - -
29/11:00am 24.8 SSE 8 12 1016.3 - 0.0 - Partly cloudy 10 - - - -
29/10:00am 24.4 SE 9 15 1014.8 - 12.4 - Cloudy - - - - -
29/09:00am 24.6 SE 12 21 1015.7 - 12.4 - Partly cloudy 10 - - - -
29/08:00am 25.2 SE 11 16 1014.6 - 12.4 - Partly cloudy 10 - - - -
29/07:06am 25.0 SE 12 17 1014.1 - 12.4 - Partly cloudy 10 - - - -
29/07:00am 25.0 SE 12 16 1012.5 - 12.4 - Cloudy 10 - - - -
29/06:40am 25.1 SE 11 15 1013.8 - 12.4 - Partly cloudy 10 - - - -
29/06:37am 25.1 SE 12 16 1013.8 - 12.4 - Partly cloudy 10 - - - -
29/06:00am 24.8 SE 12 17 1013.7 - 12.4 - Partly cloudy 10 - - - -
29/05:00am 25.0 SE 12 19 1013.2 - 12.4 - Partly cloudy 10 - - - -
29/04:23am 24.4 SE 9 14 1013.4 - 12.4 - Partly cloudy 10 - - - -
29/04:00am 24.3 SSE 8 15 1011.8 - 12.4 - Cloudy 10 - - - -
29/03:28am 24.2 SE 11 16 1013.4 - 12.4 - Partly cloudy 10 - - - -
29/03:00am 24.8 SE 11 17 1013.6 - 12.4 - Partly cloudy 10 - - - -
29/02:45am 24.6 SE 10 16 1013.8 - 12.4 - Partly cloudy 10 - - - -
29/02:00am 24.1 SSE 9 13 1014.4 - 12.4 - Partly cloudy 10 - - - -
29/01:54am 23.9 SSE 10 16 1014.5 - 12.4 - Partly cloudy 10 - - - -
29/01:20am 24.4 SE 11 14 1014.9 - 12.4 - Partly cloudy 9 - - - -
29/01:08am 24.4 SE 10 13 1014.9 - 12.4 - Partly cloudy 8 - - - -
29/01:05am 24.4 SE 11 15 1015.0 - 12.4 - Partly cloudy 8 - - - -
29/01:00am 24.4 SE 10 15 1013.5 - 12.4 - Partly cloudy 7 - - - -
29/12:26am 24.7 SE 9 16 1015.1 - 4.6 - Partly cloudy 5 - - - -
29/12:11am 24.6 SE 11 15 1015.2 - 4.0 - Partly cloudy 10 - - - -
29/12:00am 24.5 SE 7 15 1015.2 - 4.0 - Partly cloudy 6 - - - -
 
Date/Time
WST
Temp

°C
Wind Pressure Rain
since 9am
mm
Weather Cloud Vis
km
Sea
Height
m
Swell
Dir
 
Speed
knots
Gust
knots
hPa Trend Height
m
Period
s
Dir
28/11:56pm 24.5 SE 8 13 1015.2 - 4.0 - Partly cloudy 5 - - - -
28/11:43pm 24.7 SE 11 18 1015.3 - 2.4 - Partly cloudy 6 - - - -
28/11:09pm 25.3 SE 11 15 1015.4 - 0.0 - Partly cloudy 10 - - - -
28/11:00pm 25.3 SE 10 15 1015.4 - 0.0 - Partly cloudy 10 - - - -
28/10:17pm 25.7 SE 10 15 1015.3 - 0.0 - Partly cloudy 10 - - - -
28/10:14pm 25.7 SE 11 15 1015.3 - 0.0 - Partly cloudy 10 - - - -
28/10:00pm 25.6 SE 10 16 1013.6 - 0.0 - Cloudy 10 - - - -
28/09:00pm 25.6 SE 11 14 1014.5 - 0.0 - Partly cloudy 10 - - - -
28/08:00pm 25.6 SE 9 13 1013.8 - 0.0 - Partly cloudy 10 - - - -
28/07:00pm 25.3 ESE 7 10 1011.7 - 0.0 - Cloudy 10 - - - -
28/06:00pm 25.8 ESE 9 13 1013.4 - 0.0 - Cloudy 10 - - - -
28/05:29pm 26.0 ESE 9 13 1013.3 - 0.0 - Partly cloudy 10 - - - -
28/05:11pm 26.2 ESE 9 13 1013.3 - 0.0 - Partly cloudy 10 - - - -
28/05:00pm 26.1 ESE 10 14 1013.1 - 0.0 - Partly cloudy 10 - - - -
28/04:41pm 26.1 ESE 11 14 1013.0 - 0.0 - Partly cloudy 10 - - - -
28/04:00pm 26.9 ESE 11 15 1011.2 - 0.0 - Cloudy 10 - - - -
28/03:36pm 26.3 SE 11 15 1012.8 - 0.0 - Partly cloudy 10 - - - -
28/03:25pm 26.3 SE 11 15 1012.9 - 0.0 - Partly cloudy 10 - - - -
28/03:00pm 27.1 SE 10 15 1013.1 - 0.0 - Partly cloudy 10 - - - -
28/02:54pm 26.6 SE 11 15 1013.2 - 0.0 - Partly cloudy 10 - - - -
28/02:24pm 27.0 ESE 12 16 1013.4 - 0.0 - Partly cloudy 10 - - - -
28/02:01pm 27.3 ESE 12 16 1013.7 - 0.0 - Partly cloudy 10 - - - -
28/02:00pm 27.1 ESE 12 16 1013.7 - 0.0 - Partly cloudy 10 - - - -
28/01:48pm 27.6 ESE 13 17 1013.8 - 0.0 - Partly cloudy 10 - - - -
28/01:31pm 27.2 ESE 13 16 1013.8 - 0.0 - Partly cloudy 10 - - - -
28/01:00pm 27.2 SE 11 15 1012.4 - 0.0 - Cloudy 10 - - - -
28/12:55pm 27.0 SE 12 15 1014.1 - 0.0 - Partly cloudy 10 - - - -
28/12:00pm 27.0 ESE 14 19 1014.4 - 0.0 - Partly cloudy 10 - - - -
28/11:00am 26.6 SE 11 19 1014.8 - 0.0 - Partly cloudy 10 - - - -
28/10:00am 26.6 SE 11 16 1013.0 - 0.0 - Mostly clear 10 - - - -
28/09:00am 25.8 SE 10 14 1014.5 - 0.0 - Partly cloudy 10 - - - -
28/08:00am 25.2 SE 10 14 1013.6 - 0.0 - Partly cloudy 10 - - - -
28/07:00am 24.7 SE 9 13 1011.9 - 0.0 - Mostly cloudy 10 - - - -
28/06:00am 24.9 SE 9 13 1013.3 - 0.0 - Partly cloudy 10 - - - -
28/05:00am 24.7 SE 10 14 1013.0 - 0.0 - Partly cloudy 10 - - - -
28/04:52am 24.6 SE 10 14 1013.0 - 0.0 - Partly cloudy 10 - - - -
28/04:32am 24.7 SE 10 13 1012.8 - 0.0 - Partly cloudy 10 - - - -
28/04:00am 24.6 SE 10 14 1011.2 - 0.0 - Mostly clear 10 - - - -
28/03:00am 24.6 SE 9 12 1013.2 - 0.0 - Partly cloudy 10 - - - -
28/02:00am 24.6 SE 8 12 1013.7 - 0.0 - Partly cloudy 10 - - - -
28/01:00am 24.6 SE 7 12 1012.7 - 0.0 - Partly cloudy 10 - - - -
28/12:00am 24.6 SE 7 9 1014.6 - 0.0 - Partly cloudy 10 - - - -
 
Date/Time
WST
Temp

°C
Wind Pressure Rain
since 9am
mm
Weather Cloud Vis
km
Sea
Height
m
Swell
Dir
 
Speed
knots
Gust
knots
hPa Trend Height
m
Period
s
Dir
27/11:00pm 24.5 SE 7 11 1014.7 - 0.0 - - 10 - - - -
27/10:00pm 24.8 SE 9 11 1013.3 - 0.0 - Mostly clear 10 - - - -

Other Formats:

Comma delimited format used in spreadsheet applications
http://www.bom.gov.au/fwo/IDW60701/IDW60701.96995.axf

JavaScript Object Notation format (JSON) in row-major order
http://www.bom.gov.au/fwo/IDW60701/IDW60701.96995.json